KSLE

McNary Field Airport

Salem, Oregon, USA
METAR KSLE 280056Z 33005KT 10SM CLR 26/09 A3012 RMK AO2 SLP200 T02560094
Observed Flight Rules
May-28 @ 00:56 UTC (21 minutes ago) Visual Flight Rules
Wind Visibility Clouds
330° at 5 knots 10 miles
  • Clear skies
Temperatures Readings
Current 26°C / 79°F
Dewpoint 9°C / 48°F
Humidity 34%
Altimeter 30.12" Hg
Pressure 1020 hPa
Elevation 59
METAR KSLE 280056Z 33005KT 10SM CLR 26/09 A3012 RMK AO2 SLP200 T02560094
Observed Flight Rules
May-28 @ 00:56 UTC
(21 minutes ago)
VFR
Wind Visibility
330° at 5 knots 10 miles
Clouds
  • Clear skies
Temperature Dewpoint
26°C / 79°F 9°C / 48°F
Humidity Altimeter Pressure
34% 30.12" Hg 1020 hPa